P. B. Shah — WDB8609 — position and weather

sailwx.info

Track history (hours):
 
Tides and Currents Weather Stations Pressure Air Temp Water Temp Dewpoint Dewpoint Depression Visibility Wind Speed Wind Dir Waves Ship Positions

P. B. Shah

Owner: INGRAM BARGE COMPANY, Nashville, TN. More information available from US FCC via Universal Licensing System and Coast Guard Vessel Documentation Center.

Last reported at 2016-Apr-09 14:33 UTC. Time now 2016-May-28 10:03 UTC.
Position N 33°02' W 091°09'.
Warning: this ship's position is 48 days out of date.

Length 46 m; draft 3.1 m.

Type: Towing. MMSI: 366961480.

Date/timePositionNaut miles runAvg speedWind from/ knotsBaromVisibWave heightAir tempDewpointWater temp
2016-Apr-09 14:33N 33°02' W 091°09'5 4.6
2016-Apr-09 13:33N 32°57' W 091°09'4 4.2
2016-Apr-09 12:34N 32°56' W 091°04'10 4.6
2016-Apr-09 10:24N 32°47' W 091°09'4 3.9
2016-Apr-09 09:26N 32°44' W 091°07'3 3.5
2016-Apr-09 08:29N 32°42' W 091°04'5 4.5
2016-Apr-09 07:29N 32°40' W 091°08'3 3.4
2016-Apr-09 06:34N 32°37' W 091°09'5 4.7
2016-Apr-09 05:34N 32°32' W 091°06'5 4.5
2016-Apr-09 04:34N 32°28' W 091°06'5 4.7
2016-Apr-09 03:34N 32°26' W 091°01'4 4.0
2016-Apr-09 02:34N 32°22' W 091°00'5 4.6
2016-Apr-09 01:33N 32°20' W 090°55'3 3.3
2016-Apr-09 00:33N 32°17' W 090°56'5 4.6
2016-Apr-08 23:33N 32°13' W 090°59'5 4.6
2016-Apr-08 22:33N 32°09' W 091°00'4 3.7
2016-Apr-08 21:34N 32°08' W 091°04'97 3.1
2016-Apr-07 14:32N 30°31' W 091°17'5 0.9
2016-Apr-07 09:21N 30°29' W 091°12'27 1.0
2016-Apr-06 06:33N 30°06' W 090°55'8 0.5
2016-Apr-05 14:17N 29°59' W 090°50'0 0.0
2016-Apr-05 13:30N 29°59' W 090°50'0 0.0
2016-Apr-05 12:34N 29°59' W 090°50'0 0.0
2016-Apr-05 11:33N 29°59' W 090°50'13 2.5
2016-Apr-05 06:33N 30°03' W 090°36'3 3.4
2016-Apr-05 05:33N 30°03' W 090°32'0 0.1
2016-Apr-05 04:33N 30°03' W 090°32'4 3.1
2016-Apr-05 03:06N 30°00' W 090°28'3 4.0
2016-Apr-05 02:29N 29°59' W 090°25'39 3.1
2016-Apr-04 14:13N 30°11' W 091°07'91 3.3
2016-Apr-03 10:34N 31°42' W 091°24'9 8.7
2016-Apr-03 09:33N 31°50' W 091°21'8 7.7
2016-Apr-03 08:33N 31°53' W 091°13'7 7.4
2016-Apr-03 07:33N 31°59' W 091°07'7 6.7
2016-Apr-03 06:33N 32°06' W 091°05'2 2.4
2016-Apr-03 05:33N 32°08' W 091°06'6 6.1
2016-Apr-03 04:33N 32°11' W 090°60'9 8.6
2016-Apr-03 03:33N 32°19' W 090°54'6 6.3
2016-Apr-03 02:34N 32°23' W 090°60'8 7.6
2016-Apr-03 01:33N 32°28' W 091°06'  
Track history (hours):
 
Tides and Currents Weather Stations Pressure Air Temp Water Temp Dewpoint Dewpoint Depression Visibility Wind Speed Wind Dir Waves Ship Positions

P. B. Shah

Owner: INGRAM BARGE COMPANY, Nashville, TN. More information available from US FCC via Universal Licensing System and Coast Guard Vessel Documentation Center.

Last reported at 2016-Apr-09 14:33 UTC. Time now 2016-May-28 10:03 UTC.
Position N 33°02' W 091°09'.
Warning: this ship's position is 48 days out of date.

Length 46 m; draft 3.1 m.

Type: Towing. MMSI: 366961480.

Date/timePositionNaut miles runAvg speedWind from/ knotsBaromVisibWave heightAir tempDewpointWater temp
2016-Apr-09 14:33N 33°02' W 091°09'5 4.6
2016-Apr-09 13:33N 32°57' W 091°09'4 4.2
2016-Apr-09 12:34N 32°56' W 091°04'10 4.6
2016-Apr-09 10:24N 32°47' W 091°09'4 3.9
2016-Apr-09 09:26N 32°44' W 091°07'3 3.5
2016-Apr-09 08:29N 32°42' W 091°04'5 4.5
2016-Apr-09 07:29N 32°40' W 091°08'3 3.4
2016-Apr-09 06:34N 32°37' W 091°09'5 4.7
2016-Apr-09 05:34N 32°32' W 091°06'5 4.5
2016-Apr-09 04:34N 32°28' W 091°06'5 4.7
2016-Apr-09 03:34N 32°26' W 091°01'4 4.0
2016-Apr-09 02:34N 32°22' W 091°00'5 4.6
2016-Apr-09 01:33N 32°20' W 090°55'3 3.3
2016-Apr-09 00:33N 32°17' W 090°56'5 4.6
2016-Apr-08 23:33N 32°13' W 090°59'5 4.6
2016-Apr-08 22:33N 32°09' W 091°00'4 3.7
2016-Apr-08 21:34N 32°08' W 091°04'97 3.1
2016-Apr-07 14:32N 30°31' W 091°17'5 0.9
2016-Apr-07 09:21N 30°29' W 091°12'27 1.0
2016-Apr-06 06:33N 30°06' W 090°55'8 0.5
2016-Apr-05 14:17N 29°59' W 090°50'0 0.0
2016-Apr-05 13:30N 29°59' W 090°50'0 0.0
2016-Apr-05 12:34N 29°59' W 090°50'0 0.0
2016-Apr-05 11:33N 29°59' W 090°50'13 2.5
2016-Apr-05 06:33N 30°03' W 090°36'3 3.4
2016-Apr-05 05:33N 30°03' W 090°32'0 0.1
2016-Apr-05 04:33N 30°03' W 090°32'4 3.1
2016-Apr-05 03:06N 30°00' W 090°28'3 4.0
2016-Apr-05 02:29N 29°59' W 090°25'39 3.1
2016-Apr-04 14:13N 30°11' W 091°07'91 3.3
2016-Apr-03 10:34N 31°42' W 091°24'9 8.7
2016-Apr-03 09:33N 31°50' W 091°21'8 7.7
2016-Apr-03 08:33N 31°53' W 091°13'7 7.4
2016-Apr-03 07:33N 31°59' W 091°07'7 6.7
2016-Apr-03 06:33N 32°06' W 091°05'2 2.4
2016-Apr-03 05:33N 32°08' W 091°06'6 6.1
2016-Apr-03 04:33N 32°11' W 090°60'9 8.6
2016-Apr-03 03:33N 32°19' W 090°54'6 6.3
2016-Apr-03 02:34N 32°23' W 090°60'8 7.6
2016-Apr-03 01:33N 32°28' W 091°06'  

Dump ship's entire track history